sensor_id;sensor_type;location;lat;lon;timestamp;P1;durP1;ratioP1;P2;durP2;ratioP2
63346;SDS011;49472;49.880;8.650;2023-02-10T00:00:06;65.80;;;42.37;;
63346;SDS011;49472;49.880;8.650;2023-02-10T00:02:32;62.33;;;40.63;;
63346;SDS011;49472;49.880;8.650;2023-02-10T00:04:57;61.40;;;40.97;;
63346;SDS011;49472;49.880;8.650;2023-02-10T00:07:22;68.43;;;38.97;;
63346;SDS011;49472;49.880;8.650;2023-02-10T00:09:48;56.40;;;38.87;;
63346;SDS011;49472;49.880;8.650;2023-02-10T00:12:14;64.40;;;39.33;;
63346;SDS011;49472;49.880;8.650;2023-02-10T00:14:40;77.33;;;42.80;;
63346;SDS011;49472;49.880;8.650;2023-02-10T00:17:05;66.60;;;40.57;;
63346;SDS011;49472;49.880;8.650;2023-02-10T00:19:30;62.30;;;38.90;;
63346;SDS011;49472;49.880;8.650;2023-02-10T00:21:57;65.00;;;42.07;;
63346;SDS011;49472;49.880;8.650;2023-02-10T00:24:22;70.27;;;42.40;;
63346;SDS011;49472;49.880;8.650;2023-02-10T00:26:48;63.60;;;42.20;;
63346;SDS011;49472;49.880;8.650;2023-02-10T00:29:14;64.43;;;40.47;;
63346;SDS011;49472;49.880;8.650;2023-02-10T00:31:40;61.50;;;41.80;;
63346;SDS011;49472;49.880;8.650;2023-02-10T00:34:06;60.90;;;40.13;;
63346;SDS011;49472;49.880;8.650;2023-02-10T00:36:33;65.20;;;39.37;;
63346;SDS011;49472;49.880;8.650;2023-02-10T00:38:58;58.77;;;40.40;;
63346;SDS011;49472;49.880;8.650;2023-02-10T00:41:24;60.43;;;39.60;;
63346;SDS011;49472;49.880;8.650;2023-02-10T00:43:50;64.27;;;41.37;;
63346;SDS011;49472;49.880;8.650;2023-02-10T00:46:16;67.77;;;40.00;;
63346;SDS011;49472;49.880;8.650;2023-02-10T00:48:43;58.77;;;40.07;;
63346;SDS011;49472;49.880;8.650;2023-02-10T00:51:09;77.17;;;39.63;;
63346;SDS011;49472;49.880;8.650;2023-02-10T00:53:34;59.23;;;39.30;;
63346;SDS011;49472;49.880;8.650;2023-02-10T00:56:00;63.63;;;38.60;;
63346;SDS011;49472;49.880;8.650;2023-02-10T00:58:26;61.70;;;41.10;;
63346;SDS011;49472;49.880;8.650;2023-02-10T01:00:52;61.03;;;39.87;;
63346;SDS011;49472;49.880;8.650;2023-02-10T01:03:18;61.10;;;38.40;;
63346;SDS011;49472;49.880;8.650;2023-02-10T01:05:44;66.90;;;40.17;;
63346;SDS011;49472;49.880;8.650;2023-02-10T01:08:10;63.93;;;39.50;;
63346;SDS011;49472;49.880;8.650;2023-02-10T01:10:36;67.53;;;38.40;;
63346;SDS011;49472;49.880;8.650;2023-02-10T01:13:01;62.30;;;39.80;;
63346;SDS011;49472;49.880;8.650;2023-02-10T01:15:28;62.03;;;39.37;;
63346;SDS011;49472;49.880;8.650;2023-02-10T01:17:53;57.90;;;38.53;;
63346;SDS011;49472;49.880;8.650;2023-02-10T01:20:19;62.83;;;40.30;;
63346;SDS011;49472;49.880;8.650;2023-02-10T01:22:44;65.37;;;39.87;;
63346;SDS011;49472;49.880;8.650;2023-02-10T01:25:09;65.30;;;40.70;;
63346;SDS011;49472;49.880;8.650;2023-02-10T01:27:35;68.73;;;39.50;;
63346;SDS011;49472;49.880;8.650;2023-02-10T01:30:00;61.43;;;40.20;;
63346;SDS011;49472;49.880;8.650;2023-02-10T01:32:26;58.07;;;41.07;;
63346;SDS011;49472;49.880;8.650;2023-02-10T01:34:51;62.80;;;40.10;;
63346;SDS011;49472;49.880;8.650;2023-02-10T01:37:17;66.23;;;41.87;;
63346;SDS011;49472;49.880;8.650;2023-02-10T01:39:42;60.47;;;39.40;;
63346;SDS011;49472;49.880;8.650;2023-02-10T01:42:08;62.70;;;39.53;;
63346;SDS011;49472;49.880;8.650;2023-02-10T01:47:03;67.30;;;38.37;;
63346;SDS011;49472;49.880;8.650;2023-02-10T01:49:30;60.70;;;39.73;;
63346;SDS011;49472;49.880;8.650;2023-02-10T01:52:00;59.60;;;38.03;;
63346;SDS011;49472;49.880;8.650;2023-02-10T01:54:35;59.13;;;38.27;;
63346;SDS011;49472;49.880;8.650;2023-02-10T01:57:05;64.60;;;40.93;;
63346;SDS011;49472;49.880;8.650;2023-02-10T01:59:32;64.53;;;41.20;;
63346;SDS011;49472;49.880;8.650;2023-02-10T02:02:00;64.53;;;39.03;;
63346;SDS011;49472;49.880;8.650;2023-02-10T02:04:32;67.80;;;41.40;;
63346;SDS011;49472;49.880;8.650;2023-02-10T02:07:18;67.00;;;41.60;;
63346;SDS011;49472;49.880;8.650;2023-02-10T02:09:48;68.90;;;41.57;;
63346;SDS011;49472;49.880;8.650;2023-02-10T02:15:02;58.97;;;37.90;;
63346;SDS011;49472;49.880;8.650;2023-02-10T02:26:07;59.07;;;39.60;;
63346;SDS011;49472;49.880;8.650;2023-02-10T02:34:55;60.77;;;39.60;;
63346;SDS011;49472;49.880;8.650;2023-02-10T02:37:35;58.97;;;38.90;;
63346;SDS011;49472;49.880;8.650;2023-02-10T02:40:05;60.33;;;39.50;;
63346;SDS011;49472;49.880;8.650;2023-02-10T02:42:32;72.57;;;41.70;;
63346;SDS011;49472;49.880;8.650;2023-02-10T02:48:04;62.10;;;39.93;;
63346;SDS011;49472;49.880;8.650;2023-02-10T02:53:38;59.53;;;40.37;;
63346;SDS011;49472;49.880;8.650;2023-02-10T02:56:14;54.90;;;36.83;;
63346;SDS011;49472;49.880;8.650;2023-02-10T02:59:32;65.17;;;39.57;;
63346;SDS011;49472;49.880;8.650;2023-02-10T03:02:11;63.87;;;39.07;;
63346;SDS011;49472;49.880;8.650;2023-02-10T03:04:38;63.33;;;38.70;;
63346;SDS011;49472;49.880;8.650;2023-02-10T03:07:05;64.33;;;38.93;;
63346;SDS011;49472;49.880;8.650;2023-02-10T03:09:30;60.40;;;38.90;;
63346;SDS011;49472;49.880;8.650;2023-02-10T03:11:57;64.37;;;40.20;;
63346;SDS011;49472;49.880;8.650;2023-02-10T03:14:22;65.60;;;39.60;;
63346;SDS011;49472;49.880;8.650;2023-02-10T03:16:48;64.87;;;40.27;;
63346;SDS011;49472;49.880;8.650;2023-02-10T03:19:14;71.63;;;40.87;;
63346;SDS011;49472;49.880;8.650;2023-02-10T03:21:39;62.63;;;39.47;;
63346;SDS011;49472;49.880;8.650;2023-02-10T03:24:05;65.00;;;38.80;;
63346;SDS011;49472;49.880;8.650;2023-02-10T03:26:30;56.90;;;38.27;;
63346;SDS011;49472;49.880;8.650;2023-02-10T03:28:56;62.57;;;39.87;;
63346;SDS011;49472;49.880;8.650;2023-02-10T03:31:22;61.83;;;38.70;;
63346;SDS011;49472;49.880;8.650;2023-02-10T03:33:47;63.23;;;40.10;;
63346;SDS011;49472;49.880;8.650;2023-02-10T03:36:13;60.83;;;39.13;;
63346;SDS011;49472;49.880;8.650;2023-02-10T03:38:38;64.40;;;41.17;;
63346;SDS011;49472;49.880;8.650;2023-02-10T03:41:04;55.73;;;36.77;;
63346;SDS011;49472;49.880;8.650;2023-02-10T03:43:29;55.20;;;37.93;;
63346;SDS011;49472;49.880;8.650;2023-02-10T03:45:55;69.13;;;38.90;;
63346;SDS011;49472;49.880;8.650;2023-02-10T03:48:23;61.40;;;38.20;;
63346;SDS011;49472;49.880;8.650;2023-02-10T03:50:51;60.97;;;38.33;;
63346;SDS011;49472;49.880;8.650;2023-02-10T03:53:16;67.40;;;39.87;;
63346;SDS011;49472;49.880;8.650;2023-02-10T03:55:42;60.83;;;38.57;;
63346;SDS011;49472;49.880;8.650;2023-02-10T03:58:07;61.67;;;38.00;;
63346;SDS011;49472;49.880;8.650;2023-02-10T04:00:32;69.13;;;38.80;;
63346;SDS011;49472;49.880;8.650;2023-02-10T04:02:58;60.47;;;36.10;;
63346;SDS011;49472;49.880;8.650;2023-02-10T04:05:23;59.67;;;39.43;;
63346;SDS011;49472;49.880;8.650;2023-02-10T04:07:48;60.50;;;39.40;;
63346;SDS011;49472;49.880;8.650;2023-02-10T04:10:14;56.70;;;37.17;;
63346;SDS011;49472;49.880;8.650;2023-02-10T04:12:39;58.27;;;38.90;;
63346;SDS011;49472;49.880;8.650;2023-02-10T04:15:05;56.60;;;38.10;;
63346;SDS011;49472;49.880;8.650;2023-02-10T04:17:30;58.17;;;37.40;;
63346;SDS011;49472;49.880;8.650;2023-02-10T04:19:56;59.63;;;38.57;;
63346;SDS011;49472;49.880;8.650;2023-02-10T04:22:21;60.03;;;38.40;;
63346;SDS011;49472;49.880;8.650;2023-02-10T04:24:46;61.97;;;38.80;;
63346;SDS011;49472;49.880;8.650;2023-02-10T04:27:12;63.07;;;38.87;;
63346;SDS011;49472;49.880;8.650;2023-02-10T04:29:37;62.43;;;39.23;;
63346;SDS011;49472;49.880;8.650;2023-02-10T04:32:05;60.23;;;39.20;;
63346;SDS011;49472;49.880;8.650;2023-02-10T04:34:30;58.53;;;39.70;;
63346;SDS011;49472;49.880;8.650;2023-02-10T04:36:55;55.20;;;38.80;;
63346;SDS011;49472;49.880;8.650;2023-02-10T04:39:21;60.50;;;39.50;;
63346;SDS011;49472;49.880;8.650;2023-02-10T04:41:46;61.30;;;39.23;;
63346;SDS011;49472;49.880;8.650;2023-02-10T04:44:11;62.40;;;39.77;;
63346;SDS011;49472;49.880;8.650;2023-02-10T04:46:37;60.17;;;39.27;;
63346;SDS011;49472;49.880;8.650;2023-02-10T04:49:02;63.07;;;37.77;;
63346;SDS011;49472;49.880;8.650;2023-02-10T04:51:27;58.00;;;35.83;;
63346;SDS011;49472;49.880;8.650;2023-02-10T04:53:52;58.07;;;38.53;;
63346;SDS011;49472;49.880;8.650;2023-02-10T04:56:18;62.17;;;40.47;;
63346;SDS011;49472;49.880;8.650;2023-02-10T04:58:43;60.60;;;36.57;;
63346;SDS011;49472;49.880;8.650;2023-02-10T05:01:08;59.80;;;38.63;;
63346;SDS011;49472;49.880;8.650;2023-02-10T05:03:34;59.67;;;37.03;;
63346;SDS011;49472;49.880;8.650;2023-02-10T05:05:59;67.73;;;38.10;;
63346;SDS011;49472;49.880;8.650;2023-02-10T05:08:31;57.53;;;39.30;;
63346;SDS011;49472;49.880;8.650;2023-02-10T05:10:57;62.60;;;40.20;;
63346;SDS011;49472;49.880;8.650;2023-02-10T05:13:22;64.47;;;39.43;;
63346;SDS011;49472;49.880;8.650;2023-02-10T05:15:47;64.53;;;38.40;;
63346;SDS011;49472;49.880;8.650;2023-02-10T05:18:13;57.23;;;35.87;;
63346;SDS011;49472;49.880;8.650;2023-02-10T05:20:38;61.40;;;37.97;;
63346;SDS011;49472;49.880;8.650;2023-02-10T05:23:04;60.13;;;36.97;;
63346;SDS011;49472;49.880;8.650;2023-02-10T05:25:29;69.67;;;38.40;;
63346;SDS011;49472;49.880;8.650;2023-02-10T05:27:54;64.27;;;39.20;;
63346;SDS011;49472;49.880;8.650;2023-02-10T05:30:20;60.30;;;37.50;;
63346;SDS011;49472;49.880;8.650;2023-02-10T05:32:46;55.23;;;37.37;;
63346;SDS011;49472;49.880;8.650;2023-02-10T05:35:12;60.90;;;37.37;;
63346;SDS011;49472;49.880;8.650;2023-02-10T05:37:37;66.27;;;39.03;;
63346;SDS011;49472;49.880;8.650;2023-02-10T05:40:03;62.63;;;39.93;;
63346;SDS011;49472;49.880;8.650;2023-02-10T05:42:28;58.80;;;38.27;;
63346;SDS011;49472;49.880;8.650;2023-02-10T05:44:54;61.73;;;38.10;;
63346;SDS011;49472;49.880;8.650;2023-02-10T05:47:19;56.87;;;37.27;;
63346;SDS011;49472;49.880;8.650;2023-02-10T05:49:44;66.00;;;38.57;;
63346;SDS011;49472;49.880;8.650;2023-02-10T05:52:10;61.80;;;38.57;;
63346;SDS011;49472;49.880;8.650;2023-02-10T05:54:35;62.73;;;37.93;;
63346;SDS011;49472;49.880;8.650;2023-02-10T05:57:01;61.13;;;38.17;;
63346;SDS011;49472;49.880;8.650;2023-02-10T05:59:27;58.80;;;39.13;;
63346;SDS011;49472;49.880;8.650;2023-02-10T06:01:52;61.80;;;38.87;;
63346;SDS011;49472;49.880;8.650;2023-02-10T06:04:17;61.60;;;39.80;;
63346;SDS011;49472;49.880;8.650;2023-02-10T06:06:43;64.80;;;39.73;;
63346;SDS011;49472;49.880;8.650;2023-02-10T06:09:08;59.70;;;38.77;;
63346;SDS011;49472;49.880;8.650;2023-02-10T06:11:33;59.73;;;39.80;;
63346;SDS011;49472;49.880;8.650;2023-02-10T06:13:59;59.13;;;38.93;;
63346;SDS011;49472;49.880;8.650;2023-02-10T06:16:24;53.50;;;37.50;;
63346;SDS011;49472;49.880;8.650;2023-02-10T06:18:50;63.47;;;39.10;;
63346;SDS011;49472;49.880;8.650;2023-02-10T06:21:15;64.10;;;38.83;;
63346;SDS011;49472;49.880;8.650;2023-02-10T06:23:41;58.47;;;36.10;;
63346;SDS011;49472;49.880;8.650;2023-02-10T06:26:07;67.30;;;40.70;;
63346;SDS011;49472;49.880;8.650;2023-02-10T06:28:33;60.07;;;38.17;;
63346;SDS011;49472;49.880;8.650;2023-02-10T06:31:00;59.93;;;38.30;;
63346;SDS011;49472;49.880;8.650;2023-02-10T06:33:25;54.73;;;39.40;;
63346;SDS011;49472;49.880;8.650;2023-02-10T06:35:51;62.00;;;39.63;;
63346;SDS011;49472;49.880;8.650;2023-02-10T06:38:16;68.60;;;41.47;;
63346;SDS011;49472;49.880;8.650;2023-02-10T06:40:42;62.97;;;39.70;;
63346;SDS011;49472;49.880;8.650;2023-02-10T06:43:07;63.40;;;42.63;;
63346;SDS011;49472;49.880;8.650;2023-02-10T06:45:33;66.53;;;39.93;;
63346;SDS011;49472;49.880;8.650;2023-02-10T06:47:59;64.27;;;41.57;;
63346;SDS011;49472;49.880;8.650;2023-02-10T06:50:25;71.03;;;41.10;;
63346;SDS011;49472;49.880;8.650;2023-02-10T06:52:50;59.33;;;38.83;;
63346;SDS011;49472;49.880;8.650;2023-02-10T06:55:16;68.90;;;41.73;;
63346;SDS011;49472;49.880;8.650;2023-02-10T06:57:41;58.93;;;40.23;;
63346;SDS011;49472;49.880;8.650;2023-02-10T07:00:09;64.73;;;41.57;;
63346;SDS011;49472;49.880;8.650;2023-02-10T07:02:37;70.33;;;41.13;;
63346;SDS011;49472;49.880;8.650;2023-02-10T07:05:03;70.67;;;42.17;;
63346;SDS011;49472;49.880;8.650;2023-02-10T07:07:30;63.30;;;40.67;;
63346;SDS011;49472;49.880;8.650;2023-02-10T07:09:56;62.20;;;41.07;;
63346;SDS011;49472;49.880;8.650;2023-02-10T07:12:22;68.77;;;42.00;;
63346;SDS011;49472;49.880;8.650;2023-02-10T07:14:49;61.17;;;40.57;;
63346;SDS011;49472;49.880;8.650;2023-02-10T07:17:14;67.13;;;42.90;;
63346;SDS011;49472;49.880;8.650;2023-02-10T07:19:40;67.23;;;43.90;;
63346;SDS011;49472;49.880;8.650;2023-02-10T07:22:05;74.73;;;46.07;;
63346;SDS011;49472;49.880;8.650;2023-02-10T07:24:31;67.97;;;43.20;;
63346;SDS011;49472;49.880;8.650;2023-02-10T07:26:57;68.70;;;42.77;;
63346;SDS011;49472;49.880;8.650;2023-02-10T07:29:23;66.60;;;42.47;;
63346;SDS011;49472;49.880;8.650;2023-02-10T07:31:48;59.87;;;41.23;;
63346;SDS011;49472;49.880;8.650;2023-02-10T07:34:13;66.37;;;43.97;;
63346;SDS011;49472;49.880;8.650;2023-02-10T07:36:39;64.37;;;42.93;;
63346;SDS011;49472;49.880;8.650;2023-02-10T07:39:04;69.13;;;43.83;;
63346;SDS011;49472;49.880;8.650;2023-02-10T07:41:29;71.53;;;42.60;;
63346;SDS011;49472;49.880;8.650;2023-02-10T07:43:54;65.93;;;40.97;;
63346;SDS011;49472;49.880;8.650;2023-02-10T07:46:20;66.43;;;43.00;;
63346;SDS011;49472;49.880;8.650;2023-02-10T07:48:45;66.40;;;44.30;;
63346;SDS011;49472;49.880;8.650;2023-02-10T07:51:10;65.87;;;43.90;;
63346;SDS011;49472;49.880;8.650;2023-02-10T07:53:35;65.13;;;42.83;;
63346;SDS011;49472;49.880;8.650;2023-02-10T07:56:02;63.77;;;42.97;;
63346;SDS011;49472;49.880;8.650;2023-02-10T07:58:28;70.20;;;44.80;;
63346;SDS011;49472;49.880;8.650;2023-02-10T08:00:54;72.80;;;46.23;;
63346;SDS011;49472;49.880;8.650;2023-02-10T08:03:20;64.10;;;42.07;;
63346;SDS011;49472;49.880;8.650;2023-02-10T08:05:45;64.03;;;43.20;;
63346;SDS011;49472;49.880;8.650;2023-02-10T08:08:12;65.83;;;39.90;;
63346;SDS011;49472;49.880;8.650;2023-02-10T08:10:38;66.03;;;42.07;;
63346;SDS011;49472;49.880;8.650;2023-02-10T08:13:03;67.33;;;43.23;;
63346;SDS011;49472;49.880;8.650;2023-02-10T08:15:29;71.73;;;43.27;;
63346;SDS011;49472;49.880;8.650;2023-02-10T08:17:54;64.40;;;43.03;;
63346;SDS011;49472;49.880;8.650;2023-02-10T08:20:19;65.50;;;41.20;;
63346;SDS011;49472;49.880;8.650;2023-02-10T08:22:45;65.83;;;42.37;;
63346;SDS011;49472;49.880;8.650;2023-02-10T08:25:10;62.33;;;41.87;;
63346;SDS011;49472;49.880;8.650;2023-02-10T08:27:35;70.80;;;43.50;;
63346;SDS011;49472;49.880;8.650;2023-02-10T08:30:01;64.10;;;42.50;;
63346;SDS011;49472;49.880;8.650;2023-02-10T08:32:26;72.33;;;41.20;;
63346;SDS011;49472;49.880;8.650;2023-02-10T08:34:52;63.70;;;39.97;;
63346;SDS011;49472;49.880;8.650;2023-02-10T08:37:17;69.87;;;41.97;;
63346;SDS011;49472;49.880;8.650;2023-02-10T08:39:43;67.07;;;42.87;;
63346;SDS011;49472;49.880;8.650;2023-02-10T08:42:09;64.10;;;43.57;;
63346;SDS011;49472;49.880;8.650;2023-02-10T08:44:34;67.23;;;44.63;;
63346;SDS011;49472;49.880;8.650;2023-02-10T08:47:00;77.57;;;41.93;;
63346;SDS011;49472;49.880;8.650;2023-02-10T08:49:25;64.37;;;42.10;;
63346;SDS011;49472;49.880;8.650;2023-02-10T08:51:52;64.03;;;44.73;;
63346;SDS011;49472;49.880;8.650;2023-02-10T08:54:17;59.53;;;41.40;;
63346;SDS011;49472;49.880;8.650;2023-02-10T08:56:43;63.07;;;42.37;;
63346;SDS011;49472;49.880;8.650;2023-02-10T08:59:08;73.80;;;42.67;;
63346;SDS011;49472;49.880;8.650;2023-02-10T09:01:33;76.23;;;47.13;;
63346;SDS011;49472;49.880;8.650;2023-02-10T09:03:59;63.97;;;43.63;;
63346;SDS011;49472;49.880;8.650;2023-02-10T09:06:26;66.73;;;44.00;;
63346;SDS011;49472;49.880;8.650;2023-02-10T09:08:55;62.20;;;42.57;;
63346;SDS011;49472;49.880;8.650;2023-02-10T09:11:21;65.80;;;42.13;;
63346;SDS011;49472;49.880;8.650;2023-02-10T09:13:48;65.43;;;43.93;;
63346;SDS011;49472;49.880;8.650;2023-02-10T09:16:14;73.90;;;45.60;;
63346;SDS011;49472;49.880;8.650;2023-02-10T09:18:40;66.90;;;45.20;;
63346;SDS011;49472;49.880;8.650;2023-02-10T09:21:05;61.03;;;42.40;;
63346;SDS011;49472;49.880;8.650;2023-02-10T09:23:30;68.07;;;45.13;;
63346;SDS011;49472;49.880;8.650;2023-02-10T09:25:57;65.73;;;44.17;;
63346;SDS011;49472;49.880;8.650;2023-02-10T09:28:24;68.80;;;45.77;;
63346;SDS011;49472;49.880;8.650;2023-02-10T09:30:50;70.80;;;45.30;;
63346;SDS011;49472;49.880;8.650;2023-02-10T09:33:16;75.23;;;44.80;;
63346;SDS011;49472;49.880;8.650;2023-02-10T09:35:42;72.27;;;44.20;;
63346;SDS011;49472;49.880;8.650;2023-02-10T09:38:08;71.07;;;46.57;;
63346;SDS011;49472;49.880;8.650;2023-02-10T09:40:37;72.83;;;46.20;;
63346;SDS011;49472;49.880;8.650;2023-02-10T09:49:14;71.37;;;43.50;;
63346;SDS011;49472;49.880;8.650;2023-02-10T09:54:43;69.70;;;44.50;;
63346;SDS011;49472;49.880;8.650;2023-02-10T09:57:14;75.80;;;46.57;;
63346;SDS011;49472;49.880;8.650;2023-02-10T09:59:43;66.40;;;44.53;;
63346;SDS011;49472;49.880;8.650;2023-02-10T10:02:16;65.77;;;44.20;;
63346;SDS011;49472;49.880;8.650;2023-02-10T10:04:49;63.23;;;44.13;;
63346;SDS011;49472;49.880;8.650;2023-02-10T10:09:42;64.90;;;43.57;;
63346;SDS011;49472;49.880;8.650;2023-02-10T10:12:11;63.60;;;44.07;;
63346;SDS011;49472;49.880;8.650;2023-02-10T10:14:41;63.80;;;45.50;;
63346;SDS011;49472;49.880;8.650;2023-02-10T10:28:04;70.40;;;45.90;;
63346;SDS011;49472;49.880;8.650;2023-02-10T10:30:45;68.10;;;41.83;;
63346;SDS011;49472;49.880;8.650;2023-02-10T10:33:20;64.57;;;43.20;;
63346;SDS011;49472;49.880;8.650;2023-02-10T10:35:47;70.57;;;43.67;;
63346;SDS011;49472;49.880;8.650;2023-02-10T10:38:16;61.77;;;41.90;;
63346;SDS011;49472;49.880;8.650;2023-02-10T10:40:48;67.83;;;41.57;;
63346;SDS011;49472;49.880;8.650;2023-02-10T10:49:09;61.53;;;42.80;;
63346;SDS011;49472;49.880;8.650;2023-02-10T10:51:34;65.70;;;43.00;;
63346;SDS011;49472;49.880;8.650;2023-02-10T10:54:01;60.20;;;41.83;;
63346;SDS011;49472;49.880;8.650;2023-02-10T11:01:53;65.10;;;43.23;;
63346;SDS011;49472;49.880;8.650;2023-02-10T11:04:20;60.13;;;41.30;;
63346;SDS011;49472;49.880;8.650;2023-02-10T11:06:51;62.47;;;44.27;;
63346;SDS011;49472;49.880;8.650;2023-02-10T11:09:20;55.27;;;42.20;;
63346;SDS011;49472;49.880;8.650;2023-02-10T11:11:46;57.60;;;41.90;;
63346;SDS011;49472;49.880;8.650;2023-02-10T11:14:13;56.93;;;42.77;;
63346;SDS011;49472;49.880;8.650;2023-02-10T11:16:43;62.43;;;43.83;;
63346;SDS011;49472;49.880;8.650;2023-02-10T11:19:18;63.30;;;43.60;;
63346;SDS011;49472;49.880;8.650;2023-02-10T11:21:48;61.60;;;42.20;;
63346;SDS011;49472;49.880;8.650;2023-02-10T11:24:18;57.90;;;41.60;;
63346;SDS011;49472;49.880;8.650;2023-02-10T11:29:29;67.90;;;43.63;;
63346;SDS011;49472;49.880;8.650;2023-02-10T11:31:56;58.50;;;43.13;;
63346;SDS011;49472;49.880;8.650;2023-02-10T11:37:13;56.63;;;40.50;;
63346;SDS011;49472;49.880;8.650;2023-02-10T11:39:53;60.90;;;42.07;;
63346;SDS011;49472;49.880;8.650;2023-02-10T11:42:21;67.80;;;41.53;;
63346;SDS011;49472;49.880;8.650;2023-02-10T11:47:21;54.67;;;41.30;;
63346;SDS011;49472;49.880;8.650;2023-02-10T11:49:48;56.60;;;40.57;;
63346;SDS011;49472;49.880;8.650;2023-02-10T11:52:17;58.43;;;40.80;;
63346;SDS011;49472;49.880;8.650;2023-02-10T11:54:46;62.47;;;39.57;;
63346;SDS011;49472;49.880;8.650;2023-02-10T12:08:04;80.47;;;43.30;;
63346;SDS011;49472;49.880;8.650;2023-02-10T12:13:19;65.43;;;42.80;;
63346;SDS011;49472;49.880;8.650;2023-02-10T12:18:53;60.67;;;40.90;;
63346;SDS011;49472;49.880;8.650;2023-02-10T12:26:54;56.50;;;40.30;;
63346;SDS011;49472;49.880;8.650;2023-02-10T12:49:10;63.50;;;43.67;;
63346;SDS011;49472;49.880;8.650;2023-02-10T12:57:02;55.87;;;42.20;;
63346;SDS011;49472;49.880;8.650;2023-02-10T12:59:44;62.83;;;42.47;;
63346;SDS011;49472;49.880;8.650;2023-02-10T13:02:17;59.57;;;40.37;;
63346;SDS011;49472;49.880;8.650;2023-02-10T13:04:52;57.27;;;41.37;;
63346;SDS011;49472;49.880;8.650;2023-02-10T13:07:27;73.43;;;42.07;;
63346;SDS011;49472;49.880;8.650;2023-02-10T13:10:02;67.27;;;44.90;;
63346;SDS011;49472;49.880;8.650;2023-02-10T13:12:52;60.90;;;43.87;;
63346;SDS011;49472;49.880;8.650;2023-02-10T13:15:25;56.53;;;41.20;;
63346;SDS011;49472;49.880;8.650;2023-02-10T13:17:50;64.63;;;44.70;;
63346;SDS011;49472;49.880;8.650;2023-02-10T13:22:47;58.30;;;42.73;;
63346;SDS011;49472;49.880;8.650;2023-02-10T13:25:19;67.43;;;45.43;;
63346;SDS011;49472;49.880;8.650;2023-02-10T13:36:41;58.87;;;40.83;;
63346;SDS011;49472;49.880;8.650;2023-02-10T13:39:16;64.30;;;42.57;;
63346;SDS011;49472;49.880;8.650;2023-02-10T13:41:48;65.70;;;45.60;;
63346;SDS011;49472;49.880;8.650;2023-02-10T13:44:37;62.60;;;44.80;;
63346;SDS011;49472;49.880;8.650;2023-02-10T13:49:34;72.63;;;44.73;;
63346;SDS011;49472;49.880;8.650;2023-02-10T13:52:14;66.40;;;43.37;;
63346;SDS011;49472;49.880;8.650;2023-02-10T13:54:52;61.87;;;44.43;;
63346;SDS011;49472;49.880;8.650;2023-02-10T13:57:23;67.93;;;47.57;;
63346;SDS011;49472;49.880;8.650;2023-02-10T14:02:37;64.17;;;45.90;;
63346;SDS011;49472;49.880;8.650;2023-02-10T14:05:03;66.60;;;44.97;;
63346;SDS011;49472;49.880;8.650;2023-02-10T14:07:45;68.63;;;46.60;;
63346;SDS011;49472;49.880;8.650;2023-02-10T14:12:55;66.13;;;46.53;;
63346;SDS011;49472;49.880;8.650;2023-02-10T14:15:35;59.13;;;45.47;;
63346;SDS011;49472;49.880;8.650;2023-02-10T14:18:06;63.57;;;46.07;;
63346;SDS011;49472;49.880;8.650;2023-02-10T14:20:54;66.10;;;43.97;;
63346;SDS011;49472;49.880;8.650;2023-02-10T14:23:31;62.63;;;45.47;;
63346;SDS011;49472;49.880;8.650;2023-02-10T14:25:59;63.67;;;44.57;;
63346;SDS011;49472;49.880;8.650;2023-02-10T14:28:29;58.40;;;44.87;;
63346;SDS011;49472;49.880;8.650;2023-02-10T14:31:00;63.13;;;43.63;;
63346;SDS011;49472;49.880;8.650;2023-02-10T14:33:42;84.80;;;44.27;;
63346;SDS011;49472;49.880;8.650;2023-02-10T14:36:24;68.17;;;45.47;;
63346;SDS011;49472;49.880;8.650;2023-02-10T14:38:51;62.03;;;43.70;;
63346;SDS011;49472;49.880;8.650;2023-02-10T14:41:19;61.07;;;44.53;;
63346;SDS011;49472;49.880;8.650;2023-02-10T14:43:46;64.33;;;45.90;;
63346;SDS011;49472;49.880;8.650;2023-02-10T14:46:18;62.83;;;44.43;;
63346;SDS011;49472;49.880;8.650;2023-02-10T14:48:46;69.70;;;45.77;;
63346;SDS011;49472;49.880;8.650;2023-02-10T14:51:22;62.33;;;45.17;;
63346;SDS011;49472;49.880;8.650;2023-02-10T14:53:48;67.80;;;44.70;;
63346;SDS011;49472;49.880;8.650;2023-02-10T14:56:16;69.77;;;45.23;;
63346;SDS011;49472;49.880;8.650;2023-02-10T14:58:53;67.70;;;43.60;;
63346;SDS011;49472;49.880;8.650;2023-02-10T15:01:35;65.13;;;45.00;;
63346;SDS011;49472;49.880;8.650;2023-02-10T15:04:01;62.23;;;44.90;;
63346;SDS011;49472;49.880;8.650;2023-02-10T15:06:29;70.10;;;48.43;;
63346;SDS011;49472;49.880;8.650;2023-02-10T15:11:28;56.63;;;42.47;;
63346;SDS011;49472;49.880;8.650;2023-02-10T15:14:20;77.03;;;44.80;;
63346;SDS011;49472;49.880;8.650;2023-02-10T15:16:49;63.23;;;44.57;;
63346;SDS011;49472;49.880;8.650;2023-02-10T15:19:15;72.50;;;45.73;;
63346;SDS011;49472;49.880;8.650;2023-02-10T15:21:43;65.57;;;47.07;;
63346;SDS011;49472;49.880;8.650;2023-02-10T15:24:26;69.30;;;47.30;;
63346;SDS011;49472;49.880;8.650;2023-02-10T15:26:53;63.83;;;43.80;;
63346;SDS011;49472;49.880;8.650;2023-02-10T15:29:19;65.60;;;45.07;;
63346;SDS011;49472;49.880;8.650;2023-02-10T15:31:51;75.43;;;47.20;;
63346;SDS011;49472;49.880;8.650;2023-02-10T15:34:25;62.87;;;45.27;;
63346;SDS011;49472;49.880;8.650;2023-02-10T15:36:57;76.00;;;45.03;;
63346;SDS011;49472;49.880;8.650;2023-02-10T15:39:28;62.43;;;43.70;;
63346;SDS011;49472;49.880;8.650;2023-02-10T15:46:45;70.57;;;48.23;;
63346;SDS011;49472;49.880;8.650;2023-02-10T15:49:14;61.50;;;44.67;;
63346;SDS011;49472;49.880;8.650;2023-02-10T15:51:43;67.00;;;46.77;;
63346;SDS011;49472;49.880;8.650;2023-02-10T15:54:15;70.77;;;45.37;;
63346;SDS011;49472;49.880;8.650;2023-02-10T15:56:53;77.13;;;47.97;;
63346;SDS011;49472;49.880;8.650;2023-02-10T15:59:26;69.20;;;47.30;;
63346;SDS011;49472;49.880;8.650;2023-02-10T16:01:58;66.67;;;47.40;;
63346;SDS011;49472;49.880;8.650;2023-02-10T16:04:25;67.30;;;45.50;;
63346;SDS011;49472;49.880;8.650;2023-02-10T16:06:55;69.57;;;47.30;;
63346;SDS011;49472;49.880;8.650;2023-02-10T16:09:21;77.53;;;47.93;;
63346;SDS011;49472;49.880;8.650;2023-02-10T16:11:47;94.60;;;48.07;;
63346;SDS011;49472;49.880;8.650;2023-02-10T16:14:12;70.90;;;44.93;;
63346;SDS011;49472;49.880;8.650;2023-02-10T16:16:42;72.77;;;48.80;;
63346;SDS011;49472;49.880;8.650;2023-02-10T16:19:12;73.73;;;47.37;;
63346;SDS011;49472;49.880;8.650;2023-02-10T16:21:39;75.67;;;48.27;;
63346;SDS011;49472;49.880;8.650;2023-02-10T16:24:05;64.23;;;43.40;;
63346;SDS011;49472;49.880;8.650;2023-02-10T16:26:32;69.03;;;46.10;;
63346;SDS011;49472;49.880;8.650;2023-02-10T16:28:57;67.83;;;47.33;;
63346;SDS011;49472;49.880;8.650;2023-02-10T16:31:23;72.40;;;44.67;;
63346;SDS011;49472;49.880;8.650;2023-02-10T16:33:48;71.07;;;45.27;;
63346;SDS011;49472;49.880;8.650;2023-02-10T16:36:14;64.43;;;44.20;;
63346;SDS011;49472;49.880;8.650;2023-02-10T16:38:41;69.97;;;48.00;;
63346;SDS011;49472;49.880;8.650;2023-02-10T16:41:07;70.60;;;44.53;;
63346;SDS011;49472;49.880;8.650;2023-02-10T16:43:33;70.87;;;44.80;;
63346;SDS011;49472;49.880;8.650;2023-02-10T16:45:58;75.70;;;46.40;;